Terminal Aerodrome Forecast
Issued by NWS Amarillo, TX

Home | Current Version | Previous Version | Text Only | Print | Product List | Glossary On
Versions: 1 2 3 4 5 6 7 8 9 10 11 12 13 14 15 16 17 18
000
FTUS44 KAMA 010500
TAFGUY
TAF
KGUY 010520Z 0106/0206 30008KT P6SM OVC015
     FM010900 35012KT 4SM BR OVC010
     FM011200 35016G24KT P6SM BKN025
     FM011500 36020G30KT P6SM SCT050
     FM020100 02010KT P6SM SKC=

USA.gov is the U.S. government's official web portal to all federal, state and local government web resources and services.